Time;durP1;ratioP1;P1;durP2;ratioP2;P2;SDS_P1;SDS_P2;PMS_P1;PMS_P2;Temp;Humidity;BMP_temperature;BMP_pressure;BME280_temperature;BME280_humidity;BME280_pressure;Samples;Min_cycle;Max_cycle;Signal;HPM_P1;HPM_P2
2022/09/21 00:01:12;;;;;;;3.92;1.60;;;20.70;64.20;;;;;;4088766;28;21084;-39
2022/09/21 00:03:36;;;;;;;5.15;1.38;;;20.80;64.40;;;;;;4087485;28;20461;-41
2022/09/21 00:06:07;;;;;;;4.00;1.27;;;20.90;64.40;;;;;;4085969;28;20039;-40
2022/09/21 00:08:30;;;;;;;4.72;1.27;;;20.90;64.00;;;;;;4087444;28;20047;-39
2022/09/21 00:10:52;;;;;;;4.80;1.15;;;21.00;63.90;;;;;;4088016;28;20039;-39
2022/09/21 00:13:15;;;;;;;3.58;1.38;;;21.00;64.40;;;;;;4090292;28;20043;-38
2022/09/21 00:15:39;;;;;;;3.17;1.13;;;21.00;63.70;;;;;;4091085;28;20521;-38
2022/09/21 00:18:02;;;;;;;;;;;21.10;63.70;;;;;;4093298;28;20086;-38
2022/09/21 00:20:27;;;;;;;4.90;1.60;;;21.10;63.50;;;;;;4093314;28;20008;-38
2022/09/21 00:22:49;;;;;;;3.35;1.10;;;21.20;63.50;;;;;;4097750;28;20053;-38
2022/09/21 00:25:12;;;;;;;3.25;0.90;;;21.20;63.40;;;;;;4096690;28;20051;-41
2022/09/21 00:27:36;;;;;;;1.80;0.95;;;21.30;63.30;;;;;;4096376;28;20040;-39
2022/09/21 00:30:01;;;;;;;1.27;0.73;;;21.30;63.30;;;;;;4085619;28;20043;-38
2022/09/21 00:32:30;;;;;;;2.55;0.95;;;21.30;63.20;;;;;;4084877;28;20053;-41
2022/09/21 00:34:52;;;;;;;3.35;1.10;;;21.40;63.10;;;;;;4083109;28;20048;-38
2022/09/21 00:37:15;;;;;;;3.00;1.02;;;21.40;63.10;;;;;;4081460;28;20051;-38
2022/09/21 00:39:38;;;;;;;2.70;1.17;;;21.50;63.00;;;;;;4089920;28;20130;-40
2022/09/21 00:42:01;;;;;;;2.60;0.98;;;21.50;62.90;;;;;;4090264;28;20050;-39
2022/09/21 00:44:33;;;;;;;4.10;1.13;;;21.50;62.90;;;;;;4086095;28;20416;-42
2022/09/21 00:47:01;;;;;;;3.33;1.10;;;21.60;62.80;;;;;;4083215;28;20039;-40
2022/09/21 00:49:26;;;;;;;2.15;0.70;;;21.60;62.70;;;;;;4080905;28;20044;-39
2022/09/21 00:51:52;;;;;;;3.38;0.90;;;21.70;62.60;;;;;;4094595;28;20043;-40
2022/09/21 00:54:25;;;;;;;1.98;0.63;;;21.70;62.50;;;;;;4083167;28;20518;-41
2022/09/21 00:56:48;;;;;;;1.70;0.73;;;21.80;62.50;;;;;;4082318;28;20122;-39
2022/09/21 00:59:14;;;;;;;0.85;0.70;;;21.80;62.40;;;;;;4091729;28;20047;-40
2022/09/21 01:01:37;;;;;;;3.30;1.00;;;21.80;62.20;;;;;;4086794;28;20052;-42
2022/09/21 01:04:00;;;;;;;2.87;0.67;;;21.80;62.20;;;;;;4086053;28;20058;-41
2022/09/21 01:06:23;;;;;;;2.77;0.80;;;21.90;62.30;;;;;;4086441;28;20187;-42
2022/09/21 01:08:53;;;;;;;1.92;1.00;;;21.90;62.20;;;;;;4093908;28;20031;-41
2022/09/21 01:11:29;;;;;;;2.08;0.90;;;21.90;62.10;;;;;;4089112;28;20414;-46
2022/09/21 01:14:14;;;;;;;1.75;1.00;;;21.90;62.10;;;;;;4093748;28;20053;-43
2022/09/21 01:16:48;;;;;;;1.70;0.90;;;21.90;62.10;;;;;;4091206;28;20031;-41
2022/09/21 01:19:33;;;;;;;2.60;0.95;;;22.00;62.10;;;;;;4092126;28;20055;-43
2022/09/21 01:22:08;;;;;;;1.63;0.70;;;22.00;62.20;;;;;;4086398;28;20043;-38
2022/09/21 01:24:40;;;;;;;4.15;1.20;;;22.00;62.10;;;;;;4089950;28;20182;-41
2022/09/21 01:27:24;;;;;;;3.20;0.70;;;22.00;62.00;;;;;;4093670;28;20034;-38
2022/09/21 01:29:50;;;;;;;1.35;0.77;;;22.00;62.00;;;;;;4089710;28;20392;-38
2022/09/21 01:32:42;;;;;;;3.03;1.15;;;22.00;62.00;;;;;;4089185;28;20051;-40
2022/09/21 01:35:55;;;;;;;1.95;0.88;;;22.10;62.00;;;;;;4082797;28;20035;-38
2022/09/21 01:38:32;;;;;;;2.45;1.00;;;22.10;62.00;;;;;;4051541;29;20045;-44
2022/09/21 01:41:01;;;;;;;3.92;0.90;;;22.10;61.90;;;;;;4089140;28;20075;-43
2022/09/21 01:43:31;;;;;;;1.33;0.80;;;22.10;61.90;;;;;;4087831;28;20693;-39
2022/09/21 01:46:00;;;;;;;1.40;0.68;;;22.20;61.80;;;;;;4088052;28;20041;-41
2022/09/21 01:48:25;;;;;;;1.08;0.75;;;22.20;61.70;;;;;;4088517;28;20040;-40
2022/09/21 01:50:55;;;;;;;1.60;0.90;;;22.20;61.60;;;;;;4085011;28;20043;-39
2022/09/21 01:53:46;;;;;;;2.45;1.00;;;22.20;61.60;;;;;;4081961;28;20449;-41
2022/09/21 01:56:20;;;;;;;1.83;0.95;;;22.20;61.70;;;;;;4078372;28;20067;-38
2022/09/21 01:58:45;;;;;;;2.15;0.98;;;22.30;61.80;;;;;;4081996;28;20510;-39
2022/09/21 02:01:14;;;;;;;2.20;1.10;;;22.30;61.80;;;;;;4095810;28;20047;-40
2022/09/21 02:03:42;;;;;;;2.08;1.25;;;22.30;61.80;;;;;;4087983;28;20127;-39
2022/09/21 02:06:06;;;;;;;2.88;0.77;;;22.30;61.80;;;;;;4079665;28;20481;-44
2022/09/21 02:08:31;;;;;;;;;;;22.30;61.80;;;;;;4085924;28;20046;-42
2022/09/21 02:10:54;;;;;;;3.92;0.77;;;22.40;61.80;;;;;;4084273;28;19994;-39
2022/09/21 02:13:20;;;;;;;2.45;0.82;;;22.40;61.70;;;;;;4092246;28;20043;-39
2022/09/21 02:16:21;;;;;;;3.38;1.20;;;22.40;61.70;;;;;;4084957;28;20091;-39
2022/09/21 02:19:10;;;;;;;1.85;0.70;;;22.40;61.70;;;;;;4061144;28;20043;-44
2022/09/21 02:21:50;;;;;;;2.03;0.77;;;22.40;61.70;;;;;;4083881;28;20070;-38
2022/09/21 02:24:58;;;;;;;3.08;1.42;;;22.50;61.60;;;;;;4085840;28;20057;-40
2022/09/21 02:27:38;;;;;;;4.10;1.33;;;22.50;60.50;;;;;;4080899;28;20071;-40
2022/09/21 02:30:27;;;;;;;2.83;1.17;;;22.50;60.20;;;;;;4082632;28;20051;-41
2022/09/21 02:33:28;;;;;;;4.80;1.60;;;22.40;60.20;;;;;;4082691;28;20155;-41
2022/09/21 02:36:09;;;;;;;2.25;1.05;;;22.40;60.00;;;;;;4078545;28;20035;-39
2022/09/21 02:38:35;;;;;;;4.32;1.45;;;22.40;60.00;;;;;;4085919;28;20047;-45
2022/09/21 02:41:23;;;;;;;2.95;1.30;;;22.40;59.90;;;;;;4088954;28;20035;-44
2022/09/21 02:44:03;;;;;;;5.47;1.38;;;22.30;60.00;;;;;;4085300;28;20054;-40
2022/09/21 02:46:43;;;;;;;3.83;1.08;;;22.30;60.00;;;;;;4080434;28;20147;-43
2022/09/21 02:49:16;;;;;;;2.70;1.13;;;22.30;60.00;;;;;;4080241;28;20044;-43
2022/09/21 02:51:50;;;;;;;2.85;1.60;;;22.30;60.00;;;;;;4092289;28;20466;-39
2022/09/21 02:54:17;;;;;;;9.52;3.42;;;22.30;60.00;;;;;;4087262;28;20467;-39
2022/09/21 02:56:41;;;;;;;6.30;3.65;;;22.30;59.90;;;;;;4090472;28;20498;-39
2022/09/21 02:59:06;;;;;;;8.98;3.85;;;22.30;60.00;;;;;;4081074;28;20046;-43
2022/09/21 03:01:30;;;;;;;11.30;5.07;;;22.30;60.30;;;;;;4084066;28;20503;-43
2022/09/21 03:03:52;;;;;;;15.13;6.65;;;22.30;60.10;;;;;;4085271;28;20043;-40
2022/09/21 03:06:15;;;;;;;15.93;6.88;;;22.30;60.10;;;;;;4090152;28;20448;-41
2022/09/21 03:08:38;;;;;;;17.98;7.47;;;22.30;60.00;;;;;;4090583;28;20043;-42
2022/09/21 03:11:01;;;;;;;18.63;8.50;;;22.30;60.10;;;;;;4092508;28;20120;-39
2022/09/21 03:13:24;;;;;;;20.65;9.20;;;22.30;60.10;;;;;;4092483;28;20512;-40
2022/09/21 03:15:47;;;;;;;19.13;9.00;;;22.30;60.10;;;;;;4087030;28;20117;-39
2022/09/21 03:18:10;;;;;;;22.85;9.95;;;22.30;60.20;;;;;;4090579;28;20283;-45
2022/09/21 03:20:33;;;;;;;20.55;9.80;;;22.30;60.20;;;;;;4091580;28;20075;-43
2022/09/21 03:22:56;;;;;;;19.92;9.27;;;22.30;60.20;;;;;;4084238;28;20479;-43
2022/09/21 03:25:19;;;;;;;21.02;9.93;;;22.30;60.30;;;;;;4085237;28;20031;-43
2022/09/21 03:27:41;;;;;;;20.60;9.65;;;22.30;60.30;;;;;;4090566;28;20054;-42
2022/09/21 03:30:04;;;;;;;22.30;9.68;;;22.20;60.30;;;;;;4082302;28;20059;-39
2022/09/21 03:32:27;;;;;;;19.85;8.60;;;22.20;61.40;;;;;;4090339;28;20111;-41
2022/09/21 03:34:50;;;;;;;17.38;8.57;;;22.30;61.70;;;;;;4088808;28;20047;-43
2022/09/21 03:37:12;;;;;;;15.70;7.88;;;22.30;62.10;;;;;;4089052;28;20122;-44
2022/09/21 03:39:35;;;;;;;18.42;8.77;;;22.40;62.30;;;;;;4092042;28;20137;-39
2022/09/21 03:41:58;;;;;;;29.50;14.23;;;22.40;61.70;;;;;;4091639;28;20435;-40
2022/09/21 03:44:21;;;;;;;30.93;17.23;;;22.40;62.40;;;;;;4084547;28;20048;-40
2022/09/21 03:46:44;;;;;;;30.48;17.08;;;22.40;62.40;;;;;;4091460;28;20415;-42
2022/09/21 03:49:07;;;;;;;31.35;16.48;;;22.50;62.00;;;;;;4091598;28;20415;-41
2022/09/21 03:51:30;;;;;;;25.38;14.10;;;22.50;62.40;;;;;;4087624;28;20039;-39
2022/09/21 03:53:52;;;;;;;26.63;13.15;;;22.50;62.50;;;;;;4094136;28;20055;-42
2022/09/21 03:56:15;;;;;;;26.00;11.77;;;22.50;62.70;;;;;;4086505;28;20114;-41
2022/09/21 03:58:38;;;;;;;18.27;10.63;;;22.60;63.00;;;;;;4092963;28;20050;-38
2022/09/21 04:01:03;;;;;;;18.33;9.55;;;22.60;63.10;;;;;;4085900;28;20118;-41
2022/09/21 04:03:26;;;;;;;20.52;10.15;;;22.60;63.20;;;;;;4091988;28;20114;-39
2022/09/21 04:05:49;;;;;;;17.70;8.90;;;22.70;63.40;;;;;;4096571;28;20039;-42
2022/09/21 04:08:11;;;;;;;17.30;8.02;;;22.70;63.50;;;;;;4093093;28;20051;-41
2022/09/21 04:10:34;;;;;;;9.98;6.53;;;22.70;63.60;;;;;;4090539;28;20137;-42
2022/09/21 04:13:03;;;;;;;11.73;6.10;;;22.70;63.70;;;;;;4094786;28;20035;-40
2022/09/21 04:15:26;;;;;;;17.25;7.00;;;22.70;63.70;;;;;;4093829;28;20038;-42
2022/09/21 04:17:52;;;;;;;9.75;5.85;;;22.80;63.70;;;;;;4096007;28;20066;-39
2022/09/21 04:20:14;;;;;;;10.68;5.22;;;22.80;63.60;;;;;;4082694;28;20043;-39
2022/09/21 04:22:37;;;;;;;14.15;5.45;;;22.80;63.50;;;;;;4088769;28;20039;-39
2022/09/21 04:25:00;;;;;;;12.30;4.60;;;22.80;63.50;;;;;;4094361;28;20106;-38
2022/09/21 04:27:23;;;;;;;10.50;4.55;;;22.80;63.30;;;;;;4088657;28;20042;-39
2022/09/21 04:29:46;;;;;;;10.30;4.68;;;22.90;63.30;;;;;;4093418;28;20051;-39
2022/09/21 04:32:10;;;;;;;8.10;4.20;;;22.80;63.10;;;;;;4095319;28;20894;-39
2022/09/21 04:34:33;;;;;;;7.88;4.13;;;22.90;63.10;;;;;;4095506;28;20400;-39
2022/09/21 04:36:57;;;;;;;6.70;3.70;;;22.90;63.30;;;;;;4090948;28;20741;-38
2022/09/21 04:39:19;;;;;;;7.40;3.20;;;22.90;63.30;;;;;;4089041;28;20067;-39
2022/09/21 04:41:42;;;;;;;9.63;3.95;;;23.00;63.30;;;;;;4100006;28;20447;-38
2022/09/21 04:44:05;;;;;;;7.35;3.15;;;22.90;63.00;;;;;;4096194;28;20130;-39
2022/09/21 04:46:28;;;;;;;5.32;3.33;;;23.00;63.10;;;;;;4103523;28;20023;-38
2022/09/21 04:48:50;;;;;;;6.80;2.72;;;23.00;62.90;;;;;;4095404;28;20047;-39
2022/09/21 04:51:15;;;;;;;5.93;2.97;;;23.00;62.90;;;;;;4098577;28;20047;-40
2022/09/21 04:53:39;;;;;;;5.43;2.60;;;23.00;62.90;;;;;;4090021;28;20435;-38
2022/09/21 04:56:03;;;;;;;5.20;2.63;;;23.00;62.80;;;;;;4087289;28;20039;-38
2022/09/21 04:58:26;;;;;;;6.55;2.80;;;23.00;62.80;;;;;;4084262;28;20466;-39
2022/09/21 05:00:50;;;;;;;7.05;3.13;;;23.00;62.80;;;;;;4094557;28;20054;-41
2022/09/21 05:03:13;;;;;;;5.20;2.90;;;23.00;62.70;;;;;;4089193;28;20109;-39
2022/09/21 05:05:36;;;;;;;4.60;2.42;;;23.10;62.70;;;;;;4092734;28;20039;-39
2022/09/21 05:07:59;;;;;;;6.88;2.83;;;23.10;62.70;;;;;;4087807;28;20150;-40
2022/09/21 05:10:21;;;;;;;5.25;2.58;;;23.10;62.70;;;;;;4085005;28;20150;-39
2022/09/21 05:12:44;;;;;;;5.45;2.40;;;23.10;62.70;;;;;;4080797;28;20111;-40
2022/09/21 05:15:07;;;;;;;5.07;2.38;;;23.10;62.60;;;;;;4085342;28;20102;-42
2022/09/21 05:17:30;;;;;;;5.18;2.20;;;23.10;62.60;;;;;;4081958;28;20111;-40
2022/09/21 05:19:53;;;;;;;2.88;1.60;;;23.10;62.70;;;;;;4092748;28;20134;-41
2022/09/21 05:22:16;;;;;;;3.72;2.05;;;23.10;62.60;;;;;;4090754;28;20036;-42
2022/09/21 05:24:38;;;;;;;4.13;2.05;;;23.10;62.50;;;;;;4088967;28;20153;-43
2022/09/21 05:27:01;;;;;;;5.57;2.50;;;23.10;62.50;;;;;;4078464;28;20492;-40
2022/09/21 05:29:24;;;;;;;4.43;2.33;;;23.10;62.40;;;;;;4076222;28;20066;-42
2022/09/21 05:32:23;;;;;;;4.65;2.55;;;23.10;62.40;;;;;;4072252;28;20215;-40
2022/09/21 05:35:04;;;;;;;4.38;2.03;;;23.10;62.40;;;;;;4080742;28;20051;-40
2022/09/21 05:37:45;;;;;;;4.45;2.10;;;23.10;62.50;;;;;;4081832;28;20048;-41
2022/09/21 05:40:10;;;;;;;4.13;2.22;;;23.10;62.40;;;;;;4080788;28;20118;-42
2022/09/21 05:42:33;;;;;;;3.92;1.95;;;23.10;62.40;;;;;;4083889;28;20126;-41
2022/09/21 05:44:56;;;;;;;4.77;2.20;;;23.20;62.50;;;;;;4093234;28;20480;-42
2022/09/21 05:47:39;;;;;;;3.70;1.90;;;23.20;62.40;;;;;;4080716;28;20295;-42
2022/09/21 05:50:20;;;;;;;4.85;2.20;;;23.20;62.50;;;;;;4077562;28;20047;-42
2022/09/21 05:52:52;;;;;;;9.30;2.45;;;23.20;62.40;;;;;;4084055;28;20047;-42
2022/09/21 05:55:29;;;;;;;3.95;1.90;;;23.20;62.50;;;;;;4087832;28;20043;-43
2022/09/21 05:58:10;;;;;;;3.45;2.17;;;23.20;62.40;;;;;;4083579;28;20556;-45
2022/09/21 06:00:59;;;;;;;3.35;1.63;;;23.20;62.50;;;;;;4085562;28;20188;-45
2022/09/21 06:03:27;;;;;;;4.07;1.92;;;23.20;62.50;;;;;;4083374;28;20039;-42
2022/09/21 06:05:50;;;;;;;5.22;2.00;;;23.30;62.50;;;;;;4086174;28;20054;-41
2022/09/21 06:08:13;;;;;;;3.45;1.58;;;23.20;62.50;;;;;;4077683;28;20484;-42
2022/09/21 06:10:36;;;;;;;3.63;1.88;;;23.30;62.60;;;;;;4082085;28;20432;-40
2022/09/21 06:12:59;;;;;;;3.78;2.28;;;23.30;62.50;;;;;;4087980;28;20384;-45
2022/09/21 06:15:21;;;;;;;3.97;2.17;;;23.30;62.50;;;;;;4078393;28;20043;-41
2022/09/21 06:17:44;;;;;;;3.75;1.85;;;23.30;62.50;;;;;;4081233;28;20286;-45
2022/09/21 06:20:07;;;;;;;3.28;1.92;;;23.30;62.50;;;;;;4080154;28;20188;-40
2022/09/21 06:22:30;;;;;;;4.78;2.17;;;23.30;62.60;;;;;;4094798;28;20041;-41
2022/09/21 06:24:53;;;;;;;4.45;1.85;;;23.30;62.60;;;;;;4078321;28;20040;-42
2022/09/21 06:27:15;;;;;;;4.55;1.95;;;23.30;62.60;;;;;;4073385;28;20039;-43
2022/09/21 06:29:38;;;;;;;3.97;2.30;;;23.30;62.50;;;;;;4081865;28;20131;-42
2022/09/21 06:32:02;;;;;;;4.55;1.50;;;23.30;62.50;;;;;;4082464;28;20047;-42
2022/09/21 06:34:25;;;;;;;2.65;1.73;;;23.30;62.60;;;;;;4081615;28;20106;-41
2022/09/21 06:36:48;;;;;;;2.75;1.50;;;23.40;62.60;;;;;;4083547;28;20045;-41
2022/09/21 06:39:11;;;;;;;4.38;1.90;;;23.30;62.60;;;;;;4075644;28;20098;-41
2022/09/21 06:41:33;;;;;;;3.80;1.70;;;23.30;62.60;;;;;;4081445;28;20043;-44
2022/09/21 06:43:56;;;;;;;3.25;1.48;;;23.30;62.70;;;;;;4090636;28;20089;-41
2022/09/21 06:46:19;;;;;;;2.83;1.70;;;23.30;62.60;;;;;;4090957;28;20054;-42
2022/09/21 06:48:41;;;;;;;3.72;1.63;;;23.30;62.60;;;;;;4090455;28;20043;-44
2022/09/21 06:51:05;;;;;;;4.25;2.08;;;23.40;62.60;;;;;;4087206;28;20051;-43
2022/09/21 06:53:29;;;;;;;2.25;1.50;;;23.40;62.50;;;;;;4090124;28;20114;-48
2022/09/21 06:55:52;;;;;;;3.50;1.58;;;23.40;62.60;;;;;;4082296;28;20054;-43
2022/09/21 06:58:15;;;;;;;3.90;1.65;;;23.40;62.50;;;;;;4092574;28;20046;-42
2022/09/21 07:00:37;;;;;;;3.15;1.77;;;23.40;62.50;;;;;;4084660;28;20031;-46
2022/09/21 07:03:00;;;;;;;3.80;1.50;;;23.40;62.60;;;;;;4089457;28;20043;-44
2022/09/21 07:05:23;;;;;;;4.47;1.60;;;23.40;62.60;;;;;;4087696;28;20111;-44
2022/09/21 07:07:46;;;;;;;3.60;1.77;;;23.40;62.60;;;;;;4087845;28;20035;-45
2022/09/21 07:10:09;;;;;;;2.65;1.80;;;23.40;62.50;;;;;;4091541;28;20234;-45
2022/09/21 07:12:33;;;;;;;4.60;1.55;;;23.40;62.60;;;;;;4082246;28;20042;-40
2022/09/21 07:14:56;;;;;;;2.47;1.30;;;23.40;62.60;;;;;;4087767;28;20407;-41
2022/09/21 07:17:18;;;;;;;3.60;1.65;;;23.40;62.60;;;;;;4088712;28;20122;-45
2022/09/21 07:19:41;;;;;;;3.35;1.60;;;23.40;62.60;;;;;;4080548;28;20035;-42
2022/09/21 07:22:04;;;;;;;4.25;1.90;;;23.40;62.60;;;;;;4090974;28;20096;-43
2022/09/21 07:24:26;;;;;;;3.67;1.48;;;23.40;62.50;;;;;;4102234;28;20073;-41
2022/09/21 07:26:49;;;;;;;3.95;1.88;;;23.40;62.60;;;;;;4096605;28;20039;-44
2022/09/21 07:29:11;;;;;;;3.58;1.42;;;23.40;62.70;;;;;;4085238;28;20032;-44
2022/09/21 07:31:34;;;;;;;3.25;1.58;;;23.40;62.60;;;;;;4077108;28;20370;-46
2022/09/21 07:33:58;;;;;;;2.55;1.10;;;23.40;62.60;;;;;;4081260;28;20500;-49
2022/09/21 07:36:20;;;;;;;3.88;1.63;;;23.40;62.60;;;;;;4079220;28;20040;-40
2022/09/21 07:38:44;;;;;;;3.22;1.40;;;23.40;62.60;;;;;;4078630;28;20511;-43
2022/09/21 07:41:07;;;;;;;4.07;1.77;;;23.40;62.70;;;;;;4082278;28;20046;-44
2022/09/21 07:43:30;;;;;;;3.05;1.55;;;23.40;62.70;;;;;;4083673;28;20054;-50
2022/09/21 07:45:57;;;;;;;2.90;1.50;;;23.40;62.60;;;;;;4079333;28;20050;-40
2022/09/21 07:48:21;;;;;;;1.80;1.17;;;23.40;62.60;;;;;;4085031;28;20684;-45
2022/09/21 07:50:44;;;;;;;2.90;1.80;;;23.40;62.50;;;;;;4081334;28;20054;-42
2022/09/21 07:53:06;;;;;;;3.05;1.50;;;23.40;62.60;;;;;;4078998;28;20045;-45
2022/09/21 07:55:29;;;;;;;3.03;1.10;;;23.40;62.60;;;;;;4079792;28;20040;-42
2022/09/21 08:00:34;;;;;;;3.15;1.60;;;23.40;62.60;;;;;;4081656;28;20040;-45
2022/09/21 08:02:56;;;;;;;2.45;1.20;;;23.40;63.00;;;;;;4080443;28;20043;-42
2022/09/21 08:05:19;;;;;;;3.80;1.42;;;23.40;62.60;;;;;;4077918;28;20039;-39
2022/09/21 08:07:42;;;;;;;6.97;1.58;;;23.40;62.60;;;;;;4075916;28;20043;-44
2022/09/21 08:10:05;;;;;;;4.93;1.90;;;23.40;62.20;;;;;;4080245;28;20498;-39
2022/09/21 08:12:27;;;;;;;5.78;2.30;;;23.40;61.00;;;;;;4080371;28;20028;-40
2022/09/21 08:14:50;;;;;;;3.85;2.10;;;23.40;60.50;;;;;;4083679;28;20047;-43
2022/09/21 08:17:13;;;;;;;6.20;2.15;;;23.30;60.40;;;;;;4097387;28;20035;-40
2022/09/21 08:19:36;;;;;;;5.82;2.15;;;23.30;60.50;;;;;;4076287;28;20199;-42
2022/09/21 08:21:59;;;;;;;4.70;2.38;;;23.20;60.60;;;;;;4085120;28;20050;-39
2022/09/21 08:24:21;;;;;;;4.95;2.30;;;23.20;60.70;;;;;;4078431;28;20127;-38
2022/09/21 08:26:45;;;;;;;5.75;1.98;;;23.10;60.80;;;;;;4081297;28;20484;-38
2022/09/21 08:29:08;;;;;;;4.03;1.90;;;23.10;60.90;;;;;;4081923;28;20054;-37
2022/09/21 08:31:30;;;;;;;5.63;2.47;;;23.10;60.90;;;;;;4076888;28;20286;-38
2022/09/21 08:33:56;;;;;;;7.63;2.38;;;23.00;61.20;;;;;;4076758;28;20040;-38
2022/09/21 08:36:19;;;;;;;5.68;2.22;;;23.00;61.90;;;;;;4082279;28;20153;-40
2022/09/21 08:38:42;;;;;;;3.22;1.48;;;23.00;62.30;;;;;;4082021;28;20066;-40
2022/09/21 08:41:22;;;;;;;3.90;1.70;;;23.00;62.60;;;;;;4079057;28;20463;-37
2022/09/21 08:43:51;;;;;;;3.78;1.73;;;23.10;63.00;;;;;;4079609;28;20142;-40
2022/09/21 08:46:17;;;;;;;3.83;1.40;;;23.10;63.10;;;;;;4079174;28;20543;-40
2022/09/21 08:48:45;;;;;;;3.05;1.63;;;23.10;63.20;;;;;;4079082;28;20050;-37
2022/09/21 08:51:15;;;;;;;3.53;1.55;;;23.10;63.30;;;;;;4077122;28;20746;-38
2022/09/21 08:53:49;;;;;;;3.13;1.50;;;23.10;63.30;;;;;;4079372;28;20601;-39
2022/09/21 08:56:13;;;;;;;2.50;1.27;;;23.10;63.50;;;;;;4080502;28;20039;-37
2022/09/21 08:58:39;;;;;;;2.88;1.38;;;23.10;63.50;;;;;;4081586;28;20039;-37
2022/09/21 09:01:30;;;;;;;3.72;1.55;;;23.10;63.50;;;;;;4084677;28;20138;-38
2022/09/21 09:04:11;;;;;;;2.38;1.05;;;23.10;64.00;;;;;;4069149;28;20042;-37
2022/09/21 09:06:50;;;;;;;2.45;1.38;;;23.10;63.50;;;;;;4080711;28;20043;-37
2022/09/21 09:09:30;;;;;;;2.90;1.30;;;23.10;63.50;;;;;;4082077;28;20392;-37
2022/09/21 09:11:56;;;;;;;2.45;1.20;;;23.00;63.50;;;;;;4085035;28;20419;-38
2022/09/21 09:14:43;;;;;;;3.28;1.48;;;23.00;63.60;;;;;;4075503;28;20036;-44
2022/09/21 09:17:55;;;;;;;3.00;1.30;;;23.00;63.70;;;;;;4079081;28;20043;-37
2022/09/21 09:20:30;;;;;;;5.32;2.10;;;23.00;63.80;;;;;;4080713;28;20051;-38
2022/09/21 09:23:16;;;;;;;7.93;2.58;;;23.00;62.40;;;;;;4080182;28;20105;-38
2022/09/21 09:25:42;;;;;;;5.53;2.53;;;23.00;62.10;;;;;;4076919;28;20043;-36
2022/09/21 09:28:34;;;;;;;5.65;2.30;;;22.90;62.00;;;;;;4089096;28;21489;-37
2022/09/21 09:31:06;;;;;;;6.05;2.50;;;22.90;62.10;;;;;;4090974;28;20090;-38
2022/09/21 09:34:03;;;;;;;8.15;2.10;;;22.80;62.20;;;;;;4083263;28;20475;-39
2022/09/21 09:36:32;;;;;;;4.65;2.13;;;22.90;62.50;;;;;;4069505;28;20272;-39
2022/09/21 09:39:14;;;;;;;4.95;2.17;;;22.80;63.00;;;;;;4082163;28;20071;-39
2022/09/21 09:41:58;;;;;;;8.02;1.77;;;22.80;63.20;;;;;;4070347;28;20047;-39
2022/09/21 09:44:43;;;;;;;5.32;1.63;;;22.80;63.40;;;;;;4084395;28;20124;-39
2022/09/21 09:47:12;;;;;;;4.72;1.42;;;22.80;63.60;;;;;;4086091;28;20043;-40
2022/09/21 09:49:43;;;;;;;2.88;1.50;;;22.80;63.70;;;;;;4080140;28;20083;-40
2022/09/21 09:52:09;;;;;;;3.33;1.50;;;22.80;63.80;;;;;;4080390;28;20158;-42
2022/09/21 09:54:35;;;;;;;2.83;1.48;;;22.80;63.80;;;;;;4084479;28;20101;-39
2022/09/21 09:56:58;;;;;;;3.53;1.40;;;22.80;63.90;;;;;;4076970;28;20043;-37
2022/09/21 09:59:44;;;;;;;3.20;1.20;;;22.70;64.00;;;;;;4078640;28;20499;-41
2022/09/21 10:02:27;;;;;;;3.42;1.20;;;22.70;64.10;;;;;;4074329;28;20125;-37
2022/09/21 10:05:05;;;;;;;4.23;1.50;;;22.80;64.20;;;;;;4084413;28;20484;-38
2022/09/21 10:07:45;;;;;;;4.20;1.30;;;22.80;64.90;;;;;;4086577;28;21053;-37
2022/09/21 10:10:32;;;;;;;3.75;1.50;;;22.80;63.70;;;;;;4086551;28;20062;-38
2022/09/21 10:12:56;;;;;;;5.70;1.70;;;22.80;63.30;;;;;;4080310;28;20525;-37
2022/09/21 10:15:23;;;;;;;3.95;1.70;;;22.70;63.10;;;;;;4082922;28;20044;-38
2022/09/21 10:17:48;;;;;;;4.40;1.90;;;22.70;63.10;;;;;;4085110;28;20035;-37
2022/09/21 10:20:19;;;;;;;3.78;1.85;;;22.70;63.10;;;;;;4085073;28;20566;-37
2022/09/21 10:22:48;;;;;;;6.30;2.10;;;22.70;63.00;;;;;;4083269;28;20047;-37
2022/09/21 10:25:19;;;;;;;5.68;2.22;;;22.70;63.00;;;;;;4087874;28;20039;-38
2022/09/21 10:27:46;;;;;;;5.78;2.42;;;22.60;63.00;;;;;;4082102;28;20415;-37
2022/09/21 10:30:29;;;;;;;3.90;1.83;;;22.60;63.00;;;;;;4081378;28;20158;-37
2022/09/21 10:32:57;;;;;;;5.22;1.98;;;22.60;63.00;;;;;;4086876;28;20122;-36
2022/09/21 10:35:20;;;;;;;5.00;2.60;;;22.60;63.00;;;;;;4082504;28;20099;-37
2022/09/21 10:37:53;;;;;;;7.75;2.35;;;22.60;63.10;;;;;;4090800;28;20077;-40
2022/09/21 10:40:18;;;;;;;4.53;2.47;;;22.60;63.10;;;;;;4087628;28;20047;-37
2022/09/21 10:42:42;;;;;;;6.03;2.25;;;22.60;63.20;;;;;;4067368;28;20567;-37
2022/09/21 10:45:21;;;;;;;5.32;2.22;;;22.60;63.70;;;;;;4075391;28;20550;-37
2022/09/21 10:47:49;;;;;;;3.38;1.83;;;22.60;63.80;;;;;;4073197;28;20043;-37
2022/09/21 10:50:26;;;;;;;5.25;1.80;;;22.60;63.90;;;;;;4078323;28;20506;-37
2022/09/21 10:52:50;;;;;;;3.75;1.65;;;22.60;64.00;;;;;;4091414;28;20522;-36
2022/09/21 10:55:19;;;;;;;2.38;1.27;;;22.70;64.00;;;;;;4086041;28;20591;-37
2022/09/21 10:57:43;;;;;;;4.47;1.67;;;22.70;64.10;;;;;;4087018;28;20412;-40
2022/09/21 11:00:34;;;;;;;3.22;1.55;;;22.70;64.10;;;;;;4091402;28;20036;-38
2022/09/21 11:03:00;;;;;;;3.38;1.20;;;22.70;64.00;;;;;;4085772;28;20050;-38
2022/09/21 11:05:25;;;;;;;4.68;1.90;;;22.80;64.00;;;;;;4089299;28;20036;-38
2022/09/21 11:07:57;;;;;;;3.60;1.67;;;22.80;64.00;;;;;;4105127;28;20105;-39
2022/09/21 11:10:30;;;;;;;4.82;1.83;;;22.80;64.00;;;;;;4091306;28;20089;-38
2022/09/21 11:13:16;;;;;;;2.97;1.20;;;22.80;64.00;;;;;;4090015;28;20051;-39
2022/09/21 11:15:45;;;;;;;2.20;1.33;;;22.80;64.10;;;;;;4084359;28;20040;-38
2022/09/21 11:18:19;;;;;;;4.47;1.40;;;22.90;64.10;;;;;;4083523;28;20126;-38
2022/09/21 11:21:12;;;;;;;3.53;1.70;;;22.90;64.10;;;;;;4088988;28;20046;-38
2022/09/21 11:24:07;;;;;;;3.55;1.45;;;22.90;64.00;;;;;;4086445;28;20073;-38
2022/09/21 11:26:47;;;;;;;3.53;1.40;;;22.90;63.90;;;;;;4084618;28;20039;-39
2022/09/21 11:29:24;;;;;;;3.53;1.67;;;22.90;64.00;;;;;;4087778;28;20043;-38
2022/09/21 11:32:04;;;;;;;2.45;1.42;;;23.00;64.00;;;;;;4091114;28;20344;-39
2022/09/21 11:34:40;;;;;;;2.47;1.30;;;23.00;63.90;;;;;;4080816;28;20448;-38
2022/09/21 11:37:09;;;;;;;3.58;1.67;;;23.00;63.90;;;;;;4090994;28;20049;-38
2022/09/21 11:39:50;;;;;;;3.00;1.80;;;23.00;63.80;;;;;;4089875;28;20051;-38
2022/09/21 11:42:46;;;;;;;7.38;1.45;;;23.00;63.70;;;;;;4080457;28;20440;-39
2022/09/21 11:45:50;;;;;;;4.18;1.63;;;23.00;63.60;;;;;;4072153;28;21171;-40
2022/09/21 11:48:36;;;;;;;2.45;1.17;;;23.00;63.70;;;;;;4086686;28;20043;-41
2022/09/21 11:51:13;;;;;;;4.45;1.45;;;23.10;63.70;;;;;;4087108;28;20555;-37
2022/09/21 11:53:39;;;;;;;3.03;1.50;;;23.10;63.80;;;;;;4085752;28;20039;-38
2022/09/21 11:56:28;;;;;;;3.13;1.30;;;23.10;63.70;;;;;;4074883;28;20050;-37
2022/09/21 11:59:15;;;;;;;6.75;1.75;;;23.10;63.60;;;;;;4083966;28;20044;-39
2022/09/21 12:02:09;;;;;;;3.15;1.63;;;23.10;63.70;;;;;;4072609;28;20057;-38
2022/09/21 12:04:48;;;;;;;3.28;1.38;;;23.10;63.60;;;;;;4084496;28;20130;-38
2022/09/21 12:07:39;;;;;;;2.97;1.30;;;23.10;63.50;;;;;;4090906;28;20079;-39
2022/09/21 12:10:36;;;;;;;3.50;1.40;;;23.20;63.50;;;;;;4087673;28;20055;-38
2022/09/21 12:13:16;;;;;;;3.25;1.23;;;23.20;63.40;;;;;;4093195;28;20491;-39
2022/09/21 12:15:47;;;;;;;2.72;1.25;;;23.20;63.30;;;;;;4077196;28;20050;-38
2022/09/21 12:18:52;;;;;;;2.55;1.10;;;23.20;63.40;;;;;;4079782;28;20093;-38
2022/09/21 12:21:31;;;;;;;2.17;1.38;;;23.20;63.40;;;;;;4063387;29;20050;-38
2022/09/21 12:23:55;;;;;;;3.58;1.50;;;23.20;63.40;;;;;;4067285;29;20047;-38
2022/09/21 12:26:56;;;;;;;3.42;1.40;;;23.20;63.40;;;;;;4075284;28;20050;-38
2022/09/21 12:29:24;;;;;;;2.72;1.30;;;23.20;63.40;;;;;;4070847;28;20528;-39
2022/09/21 12:32:04;;;;;;;2.63;1.40;;;23.20;63.40;;;;;;4082471;28;20127;-38
2022/09/21 12:34:45;;;;;;;3.15;1.50;;;23.20;63.40;;;;;;4077107;28;20043;-38
2022/09/21 12:37:14;;;;;;;2.72;1.45;;;23.20;63.40;;;;;;4082196;28;20050;-37
2022/09/21 12:40:11;;;;;;;2.63;1.40;;;23.20;63.40;;;;;;4077304;28;20539;-37
2022/09/21 12:43:00;;;;;;;4.55;1.77;;;23.20;63.40;;;;;;4077868;28;20112;-38
2022/09/21 12:45:36;;;;;;;2.83;1.60;;;23.30;63.60;;;;;;4082942;28;20055;-37
2022/09/21 12:48:18;;;;;;;2.58;1.40;;;23.20;63.50;;;;;;4080253;28;20495;-37
2022/09/21 12:50:55;;;;;;;1.75;1.38;;;23.30;63.50;;;;;;4078066;28;20047;-38
2022/09/21 12:53:26;;;;;;;2.65;1.38;;;23.30;63.50;;;;;;4079483;28;20069;-38
2022/09/21 12:56:03;;;;;;;4.10;1.55;;;23.30;63.50;;;;;;4076416;28;20043;-37
2022/09/21 12:58:37;;;;;;;3.08;1.42;;;23.30;63.50;;;;;;4076904;28;20091;-37
2022/09/21 13:01:27;;;;;;;4.35;1.85;;;23.30;63.40;;;;;;4074723;28;20039;-38
2022/09/21 13:04:08;;;;;;;2.72;1.60;;;23.30;63.30;;;;;;4072592;28;20042;-43